Weather at Grant Airport

Public forecast

Using degrees Celsius for public forecast. Weather courtesy of forecast.io.

Closest aviation weather report (METAR) to Grant Airport

Closest report is Montréal / Saint-Hubert Airport, 9.6 nm (17.7 km) WNW.

2024/05/21 02:00 (retrieved 14 minutes ago)

CYHU 210200Z AUTO 21007KT 9SM FEW250 23/14 A2986 RMK SLP114 DENSITY ALT 1200FT

Closest aviation forecast (TAF) to Grant Airport

Forecast is more than 6 hours old.

Closest forecast is Ottawa / Gatineau Airport, 99.5 nm (184.3 km) W.

2024/05/20 18:00 (retrieved 8 hours ago)

TAF CYND 201745Z 2018/2101 VRB03KT P6SM BKN240 RMK NXT FCST BY 211300Z